Kankakee, Illinois
Current Conditions -  °F | °C
As of 6:35 AM on Saturday 25 Oct 2014 (Local Time) from KIKK Reporting Station
Haze Haze  
Wind Chill: 12°   Ceiling: 400
Heat Index: 12°   Visibility: 1.5mi
Dew Point: 11°   Wind: 6mph
Humidity: 96%   Direction: 260°W
Pressure: 29.95"   Gusts: NA
Location:  41.12°N, 87.86°W
Report Text: KIKK 251135Z AUTO 26005KT 1 1/2SM BR OVC004 12/11 A2995 RMK AO2 T01170111
Loading
Personal Weather Stations






























Interactive Weather Map New forecast layout! Learn more

10-Day Weather Forecast

Advertisements
Track Severe Weather on mobile